createdAt,value
2023-04-05T04:02:07.960Z,99720.56
2023-04-05T04:04:34.728Z,99723.22
2023-04-05T04:07:01.748Z,99724.06
2023-04-05T04:09:29.866Z,99719.78
2023-04-05T04:11:58.301Z,99715.44
2023-04-05T04:14:24.898Z,99716.16
2023-04-05T04:17:10.018Z,99718.75
2023-04-05T04:19:51.357Z,99722.16
2023-04-05T04:22:42.712Z,99720.53
2023-04-05T04:25:30.915Z,99712.69
2023-04-05T04:28:19.600Z,99723.84
2023-04-05T04:31:13.910Z,99730.81
2023-04-05T04:34:13.484Z,99721.25
2023-04-05T04:36:42.985Z,99726.44
2023-04-05T04:39:45.142Z,99719.56
2023-04-05T04:42:26.929Z,99720.06
2023-04-05T04:45:13.557Z,99719.03
2023-04-05T04:47:47.406Z,99716.84
2023-04-05T04:50:24.483Z,99711.75
2023-04-05T04:52:54.063Z,99706.66
2023-04-05T04:55:25.285Z,99703.25
2023-04-05T04:57:53.626Z,99706.59
2023-04-05T05:00:21.157Z,99709.28
2023-04-05T05:02:48.669Z,99710.13
2023-04-05T05:05:16.722Z,99713.56
2023-04-05T05:07:43.249Z,99716.16
2023-04-05T05:10:11.703Z,99722.09
2023-04-05T05:12:39.019Z,99726.53
2023-04-05T05:15:06.294Z,99721.38
2023-04-05T05:17:34.793Z,99717.06
2023-04-05T05:20:05.262Z,99723.97
2023-04-05T05:22:31.819Z,99716.28
2023-04-05T05:24:58.389Z,99719.75
2023-04-05T05:27:24.979Z,99725.84
2023-04-05T05:29:51.525Z,99731.91
2023-04-05T05:32:18.004Z,99725.00
2023-04-05T05:34:45.141Z,99719.91
2023-04-05T05:37:12.800Z,99724.31
2023-04-05T05:39:39.359Z,99724.47
2023-04-05T05:42:06.646Z,99722.75
2023-04-05T05:44:33.161Z,99729.75
2023-04-05T05:46:59.652Z,99731.50
2023-04-05T05:49:26.287Z,99731.63
2023-04-05T05:51:52.908Z,99739.44
2023-04-05T05:54:19.846Z,99737.81
2023-04-05T05:56:46.485Z,99732.66
2023-04-05T05:59:13.268Z,99739.66
2023-04-05T06:16:12.153Z,99734.78
2023-04-05T06:18:39.088Z,99734.00
2023-04-05T06:21:06.298Z,99726.22
2023-04-05T06:23:32.977Z,99728.75
2023-04-05T06:25:59.495Z,99733.19
2023-04-05T06:28:26.682Z,99731.44
2023-04-05T06:30:54.992Z,99731.47
2023-04-05T06:33:32.444Z,99725.47
2023-04-05T06:36:02.077Z,99721.13
2023-04-05T06:38:28.664Z,99727.19
2023-04-05T06:40:58.227Z,99724.59
2023-04-05T06:43:24.731Z,99726.31
2023-04-05T06:45:51.523Z,99715.97
2023-04-05T06:48:18.033Z,99722.84
2023-04-05T06:50:44.838Z,99718.53
2023-04-05T06:53:13.319Z,99717.63
2023-04-05T06:55:39.913Z,99721.06
2023-04-05T06:58:06.453Z,99723.63
2023-04-05T07:00:32.958Z,99721.88
2023-04-05T07:02:59.565Z,99715.81
2023-04-05T07:05:27.207Z,99720.09
2023-04-05T07:07:53.783Z,99723.69
2023-04-05T07:10:20.874Z,99715.75
2023-04-05T07:12:47.482Z,99711.34
2023-04-05T07:15:14.239Z,99715.53
2023-04-05T07:17:41.312Z,99710.38
2023-04-05T07:20:08.360Z,99701.66
2023-04-05T07:22:35.769Z,99700.91
2023-04-05T07:25:02.640Z,99708.47
2023-04-05T07:27:32.316Z,99710.13
2023-04-05T07:29:59.098Z,99703.19
2023-04-05T07:32:25.814Z,99708.19
2023-04-05T07:34:52.405Z,99701.75
2023-04-05T07:37:18.991Z,99691.09
2023-04-05T07:39:45.511Z,99693.41
2023-04-05T07:42:12.001Z,99692.16
2023-04-05T07:44:38.524Z,99698.34
2023-04-05T07:47:05.362Z,99693.66
2023-04-05T07:49:32.058Z,99695.66
2023-04-05T07:51:58.533Z,99697.63
2023-04-05T07:54:25.133Z,99700.44
2023-04-05T07:56:51.764Z,99691.91
2023-04-05T07:59:18.351Z,99690.50
2023-04-05T08:01:44.903Z,99694.69
2023-04-05T08:04:11.768Z,99686.75
2023-04-05T08:06:38.696Z,99689.91
2023-04-05T08:09:05.985Z,99685.34
2023-04-05T08:11:33.163Z,99685.16
2023-04-05T08:14:00.170Z,99680.94
2023-04-05T08:16:27.633Z,99675.84
2023-04-05T08:18:54.231Z,99670.25
2023-04-05T08:21:20.870Z,99673.47
2023-04-05T08:23:47.568Z,99666.81
2023-04-05T08:26:14.456Z,99673.41
2023-04-05T08:28:41.110Z,99670.75
2023-04-05T08:31:07.691Z,99672.19
2023-04-05T08:33:34.397Z,99671.94
2023-04-05T08:36:08.665Z,99658.41
2023-04-05T08:38:35.715Z,99657.66
2023-04-05T08:41:17.043Z,99671.72
2023-04-05T08:43:57.740Z,99672.91
2023-04-05T08:46:25.365Z,99661.97
2023-04-05T08:48:52.737Z,99661.09
2023-04-05T08:51:23.480Z,99658.97
2023-04-05T08:53:50.649Z,99661.66
2023-04-05T08:56:22.096Z,99663.78
2023-04-05T08:59:03.052Z,99660.47
2023-04-05T09:01:31.256Z,99663.25
2023-04-05T09:04:12.270Z,99655.25
2023-04-05T09:06:39.132Z,99650.75
2023-04-05T09:09:09.254Z,99653.84
2023-04-05T09:11:36.330Z,99646.34
2023-04-05T09:14:04.971Z,99653.47
2023-04-05T09:16:37.021Z,99652.22
2023-04-05T09:19:04.063Z,99649.28
2023-04-05T10:32:43.464Z,99601.69
2023-04-05T10:35:20.371Z,99609.91
2023-04-05T10:38:12.082Z,99608.50
2023-04-05T10:40:43.462Z,99605.25
2023-04-05T10:43:17.032Z,99604.47
2023-04-05T10:45:44.432Z,99601.59
2023-04-05T10:48:48.450Z,99603.09
2023-04-05T10:51:15.352Z,99599.34
2023-04-05T10:53:42.377Z,99595.59
2023-04-05T10:56:09.566Z,99596.59
2023-04-05T10:58:39.743Z,99598.63
2023-04-05T11:01:07.611Z,99595.88
2023-04-05T11:03:51.513Z,99589.50
2023-04-05T11:06:30.485Z,99593.50
2023-04-05T11:09:09.184Z,99583.72
2023-04-05T11:11:40.004Z,99580.03
2023-04-05T11:14:23.370Z,99580.31
2023-04-05T11:16:56.521Z,99579.47
2023-04-05T11:19:48.125Z,99575.72
2023-04-05T11:22:25.763Z,99569.19
2023-04-05T11:24:53.804Z,99570.25
2023-04-05T11:27:32.096Z,99573.84
2023-04-05T11:30:00.469Z,99563.69
2023-04-05T11:32:41.757Z,99562.41
2023-04-05T11:35:14.874Z,99556.72
2023-04-05T11:38:22.102Z,99560.06
2023-04-05T11:40:49.055Z,99556.13
2023-04-05T11:43:15.686Z,99550.88
2023-04-05T11:45:43.480Z,99557.31
2023-04-05T11:48:11.979Z,99545.59
2023-04-05T11:50:41.926Z,99539.81
2023-04-05T11:53:16.130Z,99538.44
2023-04-05T11:55:51.148Z,99542.59
2023-04-05T11:58:21.391Z,99540.38
2023-04-05T12:00:59.520Z,99535.97
2023-04-05T12:03:29.397Z,99537.41
2023-04-05T12:05:58.315Z,99530.25
2023-04-05T12:08:41.998Z,99525.50
2023-04-05T12:11:10.702Z,99528.56
2023-04-05T12:13:38.751Z,99524.03
2023-04-05T12:16:07.112Z,99520.41
2023-04-05T12:18:37.571Z,99527.22
2023-04-05T12:21:08.100Z,99516.66
2023-04-05T12:23:37.073Z,99518.16
2023-04-05T12:26:04.339Z,99524.56
2023-04-05T12:28:53.332Z,99513.66
2023-04-05T12:31:36.196Z,99512.63
2023-04-05T12:34:02.824Z,99511.47
2023-04-05T12:36:32.145Z,99505.25
2023-04-05T12:38:59.032Z,99494.03
2023-04-05T12:41:29.925Z,99492.56
2023-04-05T12:44:05.196Z,99491.13
2023-04-05T12:46:47.849Z,99484.47
2023-04-05T12:49:18.813Z,99488.13
2023-04-05T12:51:46.536Z,99476.72
2023-04-05T12:54:23.383Z,99477.47
2023-04-05T12:56:50.762Z,99473.66
2023-04-05T12:59:17.372Z,99469.94
2023-04-05T13:01:44.004Z,99462.44
2023-04-05T13:06:40.406Z,99464.19
2023-04-05T13:09:06.917Z,99450.41
2023-04-05T13:11:33.469Z,99453.63
2023-04-05T13:14:00.179Z,99457.25
2023-04-05T13:16:27.290Z,99452.25
2023-04-05T13:18:53.871Z,99446.53
2023-04-05T13:21:20.479Z,99443.59
2023-04-05T13:23:47.076Z,99447.72
2023-04-05T13:26:13.652Z,99440.28
2023-04-05T13:28:40.283Z,99441.97
2023-04-05T13:31:08.323Z,99435.41
2023-04-05T13:33:35.329Z,99439.34
2023-04-05T13:36:01.987Z,99437.66
2023-04-05T13:38:28.539Z,99435.69
2023-04-05T13:40:55.454Z,99429.38
2023-04-05T13:43:22.564Z,99425.03
2023-04-05T13:45:49.368Z,99422.56
2023-04-05T13:48:15.898Z,99424.13
2023-04-05T13:50:42.534Z,99420.22
2023-04-05T13:53:09.237Z,99423.34
2023-04-05T13:55:36.029Z,99420.50
2023-04-05T13:58:02.559Z,99416.47
2023-04-05T14:00:29.065Z,99413.44
2023-04-05T14:02:55.820Z,99410.53
2023-04-05T14:05:22.472Z,99409.16
2023-04-05T14:07:50.346Z,99414.00
2023-04-05T14:10:17.736Z,99407.03
2023-04-05T14:12:44.372Z,99407.50
2023-04-05T14:15:11.489Z,99407.06
2023-04-05T14:17:38.134Z,99404.38
2023-04-05T14:20:05.260Z,99404.13
2023-04-05T14:22:31.911Z,99405.59
2023-04-05T14:24:58.483Z,99400.81
2023-04-05T14:27:26.922Z,99393.72
2023-04-05T14:29:57.172Z,99391.16
2023-04-05T14:32:25.492Z,99390.63
2023-04-05T14:34:52.422Z,99382.06
2023-04-05T14:37:18.990Z,99379.06
2023-04-05T14:39:46.752Z,99379.94
2023-04-05T14:42:13.339Z,99375.84
2023-04-05T14:44:39.899Z,99370.31
2023-04-05T14:47:06.591Z,99368.06
2023-04-05T14:49:33.123Z,99372.19
2023-04-05T14:51:59.879Z,99364.16
2023-04-05T14:54:26.437Z,99373.13
2023-04-05T14:56:53.024Z,99375.22
2023-04-05T14:59:19.638Z,99370.78
2023-04-05T15:01:47.311Z,99371.94
2023-04-05T15:04:14.006Z,99379.44
2023-04-05T15:06:40.795Z,99370.59
2023-04-05T15:09:07.373Z,99367.03
2023-04-05T15:11:38.598Z,99366.25
2023-04-05T15:14:05.360Z,99358.56
2023-04-05T15:16:32.078Z,99362.44
2023-04-05T15:19:01.841Z,99360.88
2023-04-05T15:21:28.521Z,99361.44
2023-04-05T15:23:55.910Z,99364.50
2023-04-05T15:26:22.461Z,99363.44
2023-04-05T15:28:49.012Z,99356.31
2023-04-05T15:31:15.630Z,99360.94
2023-04-05T15:33:42.224Z,99369.81
2023-04-05T15:36:09.007Z,99368.25
2023-04-05T15:38:35.649Z,99365.69
2023-04-05T15:41:02.363Z,99366.41
2023-04-05T15:43:32.538Z,99360.75
2023-04-05T15:45:59.211Z,99356.34
2023-04-05T15:48:25.860Z,99355.56
2023-04-05T15:50:52.830Z,99363.69
2023-04-05T15:53:19.454Z,99357.09
2023-04-05T15:55:46.190Z,99358.66
2023-04-05T15:58:12.912Z,99358.84
2023-04-05T16:00:39.616Z,99356.91
2023-04-05T16:03:06.496Z,99358.19
2023-04-05T16:05:33.126Z,99356.63
2023-04-05T16:07:59.742Z,99355.84
2023-04-05T16:10:26.374Z,99352.78
2023-04-05T16:12:54.272Z,99351.47
2023-04-05T16:15:20.923Z,99350.63
2023-04-05T16:17:47.769Z,99347.78
2023-04-05T16:20:14.786Z,99351.41
2023-04-05T16:22:41.549Z,99355.16
2023-04-05T16:25:08.286Z,99352.94
2023-04-05T16:27:35.969Z,99355.72
2023-04-05T16:30:02.640Z,99354.53
2023-04-05T16:32:29.232Z,99347.00
2023-04-05T16:34:55.795Z,99349.63
2023-04-05T16:37:22.380Z,99347.56
2023-04-05T16:39:49.024Z,99352.25
2023-04-05T16:42:15.737Z,99342.34
2023-04-05T16:44:42.302Z,99350.66
2023-04-05T16:47:08.965Z,99345.84
2023-04-05T16:49:35.585Z,99356.56
2023-04-05T16:52:02.275Z,99346.44
2023-04-05T16:54:28.853Z,99351.81
2023-04-05T16:56:56.353Z,99347.72
2023-04-05T16:59:23.144Z,99352.97
2023-04-05T17:01:49.924Z,99348.63
2023-04-05T17:04:16.632Z,99348.41
2023-04-05T17:06:43.211Z,99346.81
2023-04-05T17:09:09.885Z,99348.53
2023-04-05T17:11:36.463Z,99352.91
2023-04-05T17:14:03.016Z,99345.19
2023-04-05T17:16:29.642Z,99348.19
2023-04-05T17:18:56.374Z,99350.50
2023-04-05T17:21:23.125Z,99351.50
2023-04-05T17:23:49.710Z,99350.31
2023-04-05T17:26:16.264Z,99356.34
2023-04-05T17:28:43.042Z,99354.81
2023-04-05T17:31:10.976Z,99354.41
2023-04-05T17:33:37.583Z,99361.19
2023-04-05T17:36:04.358Z,99356.16
2023-04-05T17:38:31.032Z,99360.19
2023-04-05T17:40:59.219Z,99363.38
2023-04-05T17:43:26.645Z,99365.75
2023-04-05T17:45:54.440Z,99365.66
2023-04-05T17:48:21.265Z,99364.78
2023-04-05T17:50:47.953Z,99371.53
2023-04-05T17:53:15.716Z,99371.00
2023-04-05T17:55:43.348Z,99364.16
2023-04-05T17:58:10.017Z,99371.69
2023-04-05T18:00:36.565Z,99373.09
2023-04-05T18:03:07.318Z,99376.59
2023-04-05T18:05:34.794Z,99374.88
2023-04-05T18:08:01.468Z,99378.03
2023-04-05T18:10:28.318Z,99374.72
2023-04-05T18:12:55.004Z,99381.41
2023-04-05T18:15:21.714Z,99377.66
2023-04-05T18:17:48.348Z,99388.97
2023-04-05T18:20:14.985Z,99380.69
2023-04-05T18:22:41.553Z,99388.34
2023-04-05T18:25:09.815Z,99390.44
2023-04-05T18:27:36.780Z,99384.47
2023-04-05T18:30:03.547Z,99394.81
2023-04-05T18:32:30.337Z,99392.41
2023-04-05T18:34:57.004Z,99388.25
2023-04-05T18:37:25.190Z,99392.56
2023-04-05T18:39:51.736Z,99391.47
2023-04-05T18:42:18.346Z,99397.75
2023-04-05T18:44:45.505Z,99403.94
2023-04-05T18:47:12.312Z,99396.84
2023-04-05T18:49:39.063Z,99405.84
2023-04-05T18:52:05.867Z,99406.50
2023-04-05T18:54:32.442Z,99404.97
2023-04-05T18:56:59.010Z,99410.59
2023-04-05T18:59:25.691Z,99418.56
2023-04-05T19:01:52.380Z,99411.56
2023-04-05T19:04:19.059Z,99415.75
2023-04-05T19:06:45.677Z,99413.91
2023-04-05T19:09:12.303Z,99417.28
2023-04-05T19:11:38.873Z,99419.31
2023-04-05T19:14:05.615Z,99421.31
2023-04-05T19:16:32.222Z,99418.50
2023-04-05T19:18:59.013Z,99423.09
2023-04-05T19:21:26.004Z,99418.59
2023-04-05T19:23:52.688Z,99430.09
2023-04-05T19:26:21.838Z,99430.19
2023-04-05T19:28:49.228Z,99433.59
2023-04-05T19:31:16.190Z,99437.06
2023-04-05T19:33:42.853Z,99438.78
2023-04-05T19:36:09.675Z,99437.63
2023-04-05T19:38:36.480Z,99440.66
2023-04-05T19:41:03.113Z,99442.28
2023-04-05T19:43:31.617Z,99443.34
2023-04-05T19:45:59.744Z,99444.16
2023-04-05T19:48:35.896Z,99445.22
2023-04-05T19:51:08.026Z,99451.22
2023-04-05T19:53:44.749Z,99440.84
2023-04-05T19:56:21.050Z,99443.50
2023-04-05T19:58:56.414Z,99445.38
2023-04-05T20:01:33.590Z,99444.63
2023-04-05T20:04:02.148Z,99440.97
2023-04-05T20:06:33.015Z,99443.44
2023-04-05T20:09:06.128Z,99436.44
2023-04-05T20:11:33.017Z,99434.75
2023-04-05T20:14:01.877Z,99438.31
2023-04-05T20:16:31.491Z,99435.94
2023-04-05T20:19:10.107Z,99436.94
2023-04-05T20:21:37.761Z,99437.00
2023-04-05T20:24:08.524Z,99431.84
2023-04-05T20:26:35.328Z,99432.72
2023-04-05T20:29:04.364Z,99425.69
2023-04-05T20:31:35.855Z,99424.00
2023-04-05T20:34:10.949Z,99427.44
2023-04-05T20:36:43.197Z,99425.75
2023-04-05T20:39:10.125Z,99431.06
2023-04-05T20:41:36.983Z,99421.50
2023-04-05T20:44:03.793Z,99425.03
2023-04-05T20:46:30.485Z,99419.78
2023-04-05T20:48:58.047Z,99429.34
2023-04-05T20:51:24.797Z,99419.88
2023-04-05T20:53:51.604Z,99418.13
2023-04-05T20:56:18.594Z,99422.63
2023-04-05T20:58:45.405Z,99426.84
2023-04-05T21:01:12.005Z,99423.41
2023-04-05T21:03:41.123Z,99428.78
2023-04-05T21:06:09.056Z,99423.47
2023-04-05T21:08:37.101Z,99429.63
2023-04-05T21:11:06.609Z,99425.28
2023-04-05T21:13:34.543Z,99427.94
2023-04-05T21:16:01.218Z,99433.94
2023-04-05T21:18:27.781Z,99431.50
2023-04-05T21:20:54.597Z,99437.50
2023-04-05T21:23:23.317Z,99431.50
2023-04-05T21:25:50.257Z,99428.88
2023-04-05T21:28:17.060Z,99431.47
2023-04-05T21:30:43.857Z,99429.78
2023-04-05T21:33:11.156Z,99429.78
2023-04-05T21:35:38.222Z,99422.91
2023-04-05T21:38:05.475Z,99430.66
2023-04-05T21:40:32.411Z,99426.31
2023-04-05T21:42:59.400Z,99422.91
2023-04-05T21:45:26.400Z,99425.47
2023-04-05T21:47:53.368Z,99430.66
2023-04-05T21:50:20.292Z,99428.09
2023-04-05T21:52:47.142Z,99426.41
2023-04-05T21:55:14.141Z,99427.28
2023-04-05T21:57:40.770Z,99426.41
2023-04-05T22:00:11.288Z,99431.63
2023-04-05T22:02:40.841Z,99426.47
2023-04-05T22:05:08.818Z,99426.47
2023-04-05T22:07:35.823Z,99429.94
2023-04-05T22:10:02.787Z,99427.31
2023-04-05T22:12:29.591Z,99429.06
2023-04-05T22:14:56.557Z,99427.34
2023-04-05T22:17:23.296Z,99430.78
2023-04-05T22:19:50.012Z,99427.34
2023-04-05T22:22:17.241Z,99425.59
2023-04-05T22:24:44.092Z,99429.06
2023-04-05T22:27:12.099Z,99422.16
2023-04-05T22:29:39.242Z,99429.94
2023-04-05T22:32:06.385Z,99429.06
2023-04-05T22:34:33.137Z,99428.22
